Rindge, New Hampshire
Current Conditions -  °F | °C
As of 1:52 PM on Friday 31 Oct 2014 (Local Time) from KAFN Reporting Station
Overcast Overcast  
Wind Chill: 47°   Ceiling: 4700
Heat Index: 47°   Visibility: 10mi
Dew Point: 34°   Wind: 0mph
Humidity: 61%   Direction: NA
Pressure: 29.99"   Gusts: NA
Location:  42.75°N, 72.01°W
Report Text: KAFN 311752Z AUTO 00000KT 10SM SCT031 OVC047 08/01 A2999 RMK AO2 SLP166 T00830011 10083 20028 58012
Loading
Personal Weather Stations






























Interactive Weather Map
Tropical Storm Tracking
New forecast layout! Learn more

10-Day Weather Forecast

Advertisements
Track Severe Weather on mobile